Tiempo atmosférico en la estación meteorológica de Benabarre, Huesca (765 m.)



Fecha
DESCASC
Temp. máxima en grados centígrados (hora)
DESCASC
Temp. mínima en grados centígrados (hora)
DESCASC
Temp. media en grados centígrados
DESCASC
Racha de viento máxima en m/sg (hora)
DESCASC
Velocidad máxima media en intervalos de 10 minutos(hora)
DESCASC
Precipitaciones diarias en mm
DESCASC
Precipitaciones de 00:00 a 06:00 en mm
DESCASC
Precipitaciones de 06:00 a 12:00 en mm
DESCASC
Precipitaciones de 12:00 a 18:00 en mm
DESCASC
Precipitaciones de 18:00 a 24:00 en mm
DESCASC
18-08-2019 33.7 (16:20) 18.2 (07:10) 26 8.89 (16:00) 5 (16:50) 0 0 0 0 0
17-08-2019 32.6 (14:30) 17.9 (04:00) 25.2 8.33 (15:30) 5 (06:50) 0 0 0 0 0
16-08-2019 30.2 (17:30) 14.3 (07:30) 22.3 8.61 (15:20) 3.89 (16:50) 0 0 0 0 0
15-08-2019 29.3 (17:30) 14.9 (00:00) 22.1 10 (17:20) 5.56 (15:50) 0 0 0 0 0
14-08-2019 29.4 (17:50) 10.2 (00:00) 19.8 9.44 (15:30) 5.28 (17:10) 0 0 0 0 0
13-08-2019 24.7 (18:30) 11.1 (00:00) 17.9 8.33 (16:40) 5 (20:10) 0 0 0 0 0
12-08-2019 26 (18:10) 14.7 (00:00) 20.3 10.28 (15:30) 5.83 (15:20) 0 0 0 0 0
11-08-2019 28.8 (17:00) 19.9 (00:00) 24.3 8.89 (16:30) 5.28 (17:50) 0 0 0 0 0
10-08-2019 30.3 (16:00) 18 (00:00) 24.1 8.33 (11:40) 5 (14:10) 0 0 0 0 0
09-08-2019 33.8 (17:30) 19.4 (00:00) 26.6 10.83 (17:30) 6.67 (17:40) 0 0 0 0 0
08-08-2019 31.5 (17:40) 15.8 (00:00) 23.7 8.33 (17:10) 4.17 (15:00) 0 0 0 0 0
07-08-2019 29.6 (14:20) 19.5 (00:00) 24.6 11.11 (15:30) 6.39 (15:40) 0 0 0 0 0
06-08-2019 32.3 (18:40) 19.2 (00:00) 25.8 8.06 (14:00) 4.44 (14:10) 0 0 0 0 0
05-08-2019 33 (18:00) 17.5 (00:00) 25.3 7.78 (15:50) 5.28 (23:10) 0 0 0 0 0
04-08-2019 32.9 (15:50) 18.1 (00:00) 25.5 9.17 (16:40) 5 (16:40) 0 0 0 0 0
03-08-2019 32.2 (16:40) 16 (00:00) 24.1 7.5 (14:40) 4.44 (18:20) 0 0 0 0 0
02-08-2019 30.4 (18:30) 16.8 (00:00) 23.6 10 (17:00) 5 (17:00) 0 0 0 0 0
01-08-2019 29.9 (16:30) 17.2 (00:00) 23.6 7.78 (14:30) 4.17 (11:10) 0 0 0 0 0
31-07-2019 27.3 (17:10) 12.1 (00:00) 19.7 8.61 (15:20) 5 (14:20) 0 0 0 0 0
30-07-2019 27.4 (17:20) 15 (00:00) 21.2 8.61 (17:30) 5.28 (17:30) 0 0 0 0 0
29-07-2019 29.8 (18:30) 11.6 (00:00) 20.7 7.78 (18:00) 3.89 (15:10) 0 0 0 0 0
28-07-2019 25.9 (17:00) 10.5 (00:00) 18.2 7.78 (17:50) 4.72 (20:00) 0 0 0 0 0
27-07-2019 23 (15:00) 16.2 (00:00) 19.6 12.22 (19:30) 7.5 (19:40) 8.4 0 7.4 1 0
26-07-2019 27.2 (11:10) 18.5 (00:00) 22.9 10.28 (15:50) 7.5 (17:10) 0.8 0 0 0.8 0
25-07-2019 34.5 (16:10) 18.5 (00:00) 26.5 10.83 (19:50) 6.39 (19:50) 0 0 0 0 0
24-07-2019 35.4 (17:00) 19.1 (00:00) 27.3 8.33 (16:50) 4.44 (15:30) 0 0 0 0 0
23-07-2019 35.9 (16:00) 18.9 (00:00) 27.4 8.61 (15:50) 4.17 (19:10) 0 0 0 0 0
22-07-2019 35.1 (16:50) 19.1 (00:00) 27.1 9.72 (17:50) 4.17 (10:10) 0 0 0 0 0
21-07-2019 32.9 (16:50) 19.5 (00:00) 26.2 8.33 (15:30) 5.28 (04:20) 0 0 0 0 0

Gráficas

Temp. máximas Temp. mínimas Temp. medias Precipitaciones Rachas de viento máximas Velocidades máximas media en intervalos de 10 minutos

Datos horarios

Fecha y hora oficial Temperatura (ºC) Velocidad del viento (km/h) Dirección del viento Racha (km/h) Dirección de racha Precipitación (mm) Presión (hPa) Tendencia (hPa) Humedad (%)
2019-08-19 23:00:00 20.6 13 Norte 35 Noroeste 1.8 -- -- 75
2019-08-19 22:00:00 23.3 6 Noroeste 16 Noroeste 0 -- -- 63
2019-08-19 21:00:00 24.1 8 Oeste 13 Oeste 0 -- -- 62
2019-08-19 20:00:00 24.9 7 Sudoeste 19 Sur 0 -- -- 59
2019-08-19 19:00:00 25.6 8 Sur 17 Sur 0 -- -- 57
2019-08-19 18:00:00 25.5 9 Sudeste 17 Sudeste 0 -- -- 58
2019-08-19 17:00:00 24.9 8 Sur 19 Sudeste 0 -- -- 62
2019-08-19 16:00:00 25.2 15 Sur 27 Sudeste 0 -- -- 60
2019-08-19 15:00:00 24.7 14 Sudeste 30 Sur 0 -- -- 63
2019-08-19 14:00:00 24.5 14 Sur 26 Sur 0 -- -- 62
2019-08-19 13:00:00 23.8 14 Sur 26 Sudeste 0 -- -- 63
2019-08-19 12:00:00 22.5 17 Sudeste 28 Sudeste 0 -- -- 70
2019-08-19 11:00:00 21.2 9 Sudeste 17 Sur 0 -- -- 76
2019-08-19 10:00:00 20.3 10 Sudeste 17 Sudeste 0 -- -- 76
2019-08-19 09:00:00 19.6 8 Sur 15 Sudeste 0 -- -- 78
2019-08-19 08:00:00 20 7 Sudeste 18 Sudeste 0 -- -- 78
2019-08-19 07:00:00 19.7 12 Sudeste 22 Sudeste 0 -- -- 80
2019-08-19 06:00:00 19.7 14 Sudeste 23 Sudeste 0 -- -- 78
2019-08-19 05:00:00 19.7 12 Este 19 Sudeste 0 -- -- 69
2019-08-19 04:00:00 20.4 10 Sudeste 18 Sudeste 0 -- -- 64
2019-08-19 03:00:00 21 8 Sudeste 12 Este 0 -- -- 60
2019-08-19 02:00:00 22.1 8 Este 15 Sudeste 0 -- -- 56
2019-08-19 01:00:00 23.4 7 Este 18 Sudeste 0 -- -- 56
2019-08-19 00:00:00 24.1 10 Sudeste 21 Sudeste 0 -- -- 61
2019-08-18 23:00:00 25 8 Sudeste 22 Sudeste 0 -- -- 64
2019-08-18 22:00:00 26.1 11 Este 27 Sudoeste 0 -- -- 63
2019-08-18 21:00:00 29.3 7 Sur 14 Sur 0 -- -- 38
2019-08-18 20:00:00 31.4 5 Sur 17 Sur 0 -- -- 35
2019-08-18 19:00:00 32.3 9 Sur 19 Sudoeste 0 -- -- 32
2019-08-18 18:00:00 32.1 13 Oeste 29 Oeste 0 -- -- 28
2019-08-18 17:00:00 32.5 13 Noroeste 31 Noroeste 0 -- -- 28
2019-08-18 16:00:00 33.6 13 Oeste 32 Oeste 0 -- -- 23
2019-08-18 15:00:00 32.9 14 Sudoeste 25 Sudoeste 0 -- -- 26
2019-08-18 14:00:00 31.8 10 Oeste 22 Oeste 0 -- -- 37
2019-08-18 13:00:00 30.7 11 Este 19 Sudeste 0 -- -- 41
2019-08-18 12:00:00 28.8 8 Este 18 Este 0 -- -- 45
2019-08-18 11:00:00 25.8 8 Sur 15 Sur 0 -- -- 51
2019-08-18 10:00:00 23 8 Sudeste 13 Sudeste 0 -- -- 66
2019-08-18 09:00:00 21 8 Sudeste 12 Este 0 -- -- 73
2019-08-18 08:00:00 19 6 Este 9 Sudeste 0 -- -- 84
2019-08-18 07:00:00 18.3 7 Este 10 Este 0 -- -- 85
2019-08-18 06:00:00 18.8 4 Este 6 Este 0 -- -- 88
2019-08-18 05:00:00 19.8 4 Sudeste 13 Este 0 -- -- 86
2019-08-18 04:00:00 19 5 Nordeste 9 Este 0 -- -- 88
2019-08-18 03:00:00 19.2 6 Este 8 Nordeste 0 -- -- 87
2019-08-18 02:00:00 19.7 5 Nordeste 8 Este 0 -- -- 85
2019-08-18 01:00:00 20.9 2 Nordeste 9 Sudeste 0 -- -- 83
2019-08-18 00:00:00 22.7 9 Sudeste 15 Sudeste 0 -- -- 76
2019-08-17 23:00:00 23.9 8 Sudeste 14 Sudeste 0 -- -- 71
2019-08-17 22:00:00 25.2 9 Sudeste 24 Sur 0 -- -- 67
2019-08-17 21:00:00 27.1 12 Sur 21 Sudeste 0 -- -- 61
2019-08-17 20:00:00 30 10 Sur 25 Sur 0 -- -- 44
2019-08-17 19:00:00 31.4 12 Sur 24 Sur 0 -- -- 41
2019-08-17 18:00:00 32.1 10 Sur 27 Sur 0 -- -- 36
2019-08-17 17:00:00 32.4 9 Sur 25 Sur 0 -- -- 35
2019-08-17 16:00:00 32.6 11 Sur 30 Sudoeste 0 -- -- 37
2019-08-17 15:00:00 32.2 10 Sur 27 Sur 0 -- -- 38
2019-08-17 14:00:00 32.5 10 Sudeste 22 Este 0 -- -- 34
2019-08-17 13:00:00 30.5 9 Sur 22 Este 0 -- -- 35
2019-08-17 12:00:00 28.9 10 Sudeste 20 Sudeste 0 -- -- 36
2019-08-17 11:00:00 27.4 6 Sudeste 13 Este 0 -- -- 36
2019-08-17 10:00:00 25.2 8 Sudeste 22 Sudeste 0 -- -- 39
2019-08-17 09:00:00 23.7 9 Este 15 Nordeste 0 -- -- 44
2019-08-17 08:00:00 21.1 12 Este 21 Este 0 -- -- 47
2019-08-17 07:00:00 20.6 18 Este 23 Este 0 -- -- 49
2019-08-17 06:00:00 19.7 5 Este 13 Este 0 -- -- 56
2019-08-17 05:00:00 18.6 7 Norte 13 Norte 0 -- -- 69
2019-08-17 04:00:00 17.9 7 Norte 12 Nordeste 0 -- -- 73
2019-08-17 03:00:00 18.6 10 Nordeste 15 Nordeste 0 -- -- 73
2019-08-17 02:00:00 18.4 6 Norte 10 Norte 0 -- -- 76
2019-08-17 01:00:00 18.8 4 Nordeste 9 Nordeste 0 -- -- 70
2019-08-17 00:00:00 18.9 6 Norte 13 Norte 0 -- -- 61
2019-08-16 23:00:00 19.6 7 Norte 12 Norte 0 -- -- 51
2019-08-16 22:00:00 22.5 4 Norte 12 Sudeste 0 -- -- 42
2019-08-16 21:00:00 26.6 6 Sudeste 8 Este 0 -- -- 32
2019-08-16 20:00:00 29.3 5 Oeste 15 Sudoeste 0 -- -- 29
2019-08-16 19:00:00 29.4 8 Sudoeste 22 Sudoeste 0 -- -- 28
2019-08-16 18:00:00 29.6 13 Sudoeste 30 Sur 0 -- -- 26
2019-08-16 17:00:00 29.6 10 Sudoeste 23 Sur 0 -- -- 25
2019-08-16 16:00:00 29.4 12 Oeste 31 Oeste 0 -- -- 26
2019-08-16 15:00:00 28.6 10 Sur 22 Sudoeste 0 -- -- 29
2019-08-16 14:00:00 28.1 12 Sur 21 Sudoeste 0 -- -- 34
2019-08-16 13:00:00 27.3 6 Sudeste 19 Sudeste 0 -- -- 37
2019-08-16 12:00:00 25.5 8 Este 16 Sur 0 -- -- 41
2019-08-16 11:00:00 23 8 Sur 18 Sudeste 0 -- -- 49
2019-08-16 10:00:00 21.2 6 Sudeste 13 Sudeste 0 -- -- 69
2019-08-16 09:00:00 19.7 4 Este 8 Este 0 -- -- 76
2019-08-16 08:00:00 15 3 Nordeste 8 Norte 0 -- -- 93
2019-08-16 07:00:00 14.6 4 Norte 11 Nordeste 0 -- -- 91
2019-08-16 06:00:00 15.5 6 Este 9 Este 0 -- -- 90
2019-08-16 05:00:00 16.4 6 Este 13 Este 0 -- -- 86
2019-08-16 04:00:00 17.1 10 Este 15 Este 0 -- -- 87
2019-08-16 03:00:00 17.4 8 Este 17 Sudeste 0 -- -- 79
2019-08-16 02:00:00 18.3 8 Este 12 Sudeste 0 -- -- 67
2019-08-16 01:00:00 18.7 6 Este 14 Este 0 -- -- 50
2019-08-16 00:00:00 18 6 Sudeste 13 Sudeste 0 -- -- 51
2019-08-15 23:00:00 19.3 3 Nordeste 9 Sudeste 0 -- -- 47
2019-08-15 22:00:00 22.4 7 Nordeste 15 Este 0 -- -- 39
2019-08-15 21:00:00 26.2 5 Sudoeste 24 Sudoeste 0 -- -- 30
2019-08-15 20:00:00 28 13 Sudoeste 30 Sudoeste 0 -- -- 30
2019-08-15 19:00:00 28.7 18 Sudoeste 34 Sudoeste 0 -- -- 29
2019-08-15 18:00:00 29.2 18 Sudoeste 36 Oeste 0 -- -- 29
2019-08-15 17:00:00 28.9 18 Sudoeste 34 Sudoeste 0 -- -- 37
2019-08-15 16:00:00 28.5 18 Oeste 32 Oeste 0 -- -- 41
2019-08-15 15:00:00 27.4 16 Oeste 31 Sudoeste 0 -- -- 45
2019-08-15 14:00:00 26.6 15 Oeste 30 Sudoeste 0 -- -- 49
2019-08-15 13:00:00 26.3 12 Oeste 23 Oeste 0 -- -- 50
2019-08-15 12:00:00 26.2 4 Este 16 Este 0 -- -- 53
2019-08-15 11:00:00 24.4 8 Sudeste 15 Este 0 -- -- 58
2019-08-15 10:00:00 22.3 9 Este 14 Este 0 -- -- 63
2019-08-15 09:00:00 19.8 4 Sudeste 8 Sudeste 0 -- -- 66
2019-08-15 08:00:00 15.8 4 Norte 9 Norte 0 -- -- 80
2019-08-15 07:00:00 14.9 9 Norte 12 Norte 0 -- -- 82
2019-08-15 06:00:00 15.2 8 Norte 10 Norte 0 -- -- 79
2019-08-15 05:00:00 15.8 8 Norte 10 Noroeste 0 -- -- 76
2019-08-15 04:00:00 17.3 0 Calma 9 Nordeste 0 -- -- 69
2019-08-15 03:00:00 17.3 4 Este 11 Este 0 -- -- 66
2019-08-15 02:00:00 17.9 4 Este 12 Este 0 -- -- 63
2019-08-15 01:00:00 19.8 9 Este 13 Este 0 -- -- 55
2019-08-15 00:00:00 19.9 5 Este 12 Este 0 -- -- 50
2019-08-14 23:00:00 19.5 6 Norte 12 Norte 0 -- -- 49
2019-08-14 22:00:00 22.6 6 Norte 12 Este 0 -- -- 41
2019-08-14 21:00:00 26.5 3 Sur 27 Oeste 0 -- -- 33
2019-08-14 20:00:00 28.5 14 Sudoeste 30 Sudoeste 0 -- -- 31
2019-08-14 19:00:00 29 14 Sudoeste 33 Sudoeste 0 -- -- 29
2019-08-14 18:00:00 29.2 15 Sur 33 Sudoeste 0 -- -- 29
2019-08-14 17:00:00 29.1 15 Sudoeste 31 Oeste 0 -- -- 27
2019-08-14 16:00:00 28 17 Sudoeste 34 Oeste 0 -- -- 31
2019-08-14 15:00:00 26.8 18 Oeste 30 Sudoeste 0 -- -- 30
2019-08-14 14:00:00 25.5 15 Oeste 31 Oeste 0 -- -- 31
2019-08-14 13:00:00 24.4 13 Oeste 30 Oeste 0 -- -- 33
2019-08-14 12:00:00 22.8 12 Oeste 22 Oeste 0 -- -- 33
2019-08-14 11:00:00 21.2 10 Oeste 21 Sudoeste 0 -- -- 39
2019-08-14 10:00:00 19.2 5 Sudeste 9 Este 0 -- -- 49
2019-08-14 09:00:00 16.9 4 Este 8 Nordeste 0 -- -- 56
2019-08-14 08:00:00 11.2 6 Norte 11 Norte 0 -- -- 74
2019-08-14 07:00:00 10.5 5 Norte 10 Norte 0 -- -- 74
2019-08-14 06:00:00 11.4 5 Norte 10 Norte 0 -- -- 71
2019-08-14 05:00:00 11.6 5 Norte 12 Norte 0 -- -- 69
2019-08-14 04:00:00 12.2 4 Norte 10 Norte 0 -- -- 66
2019-08-14 03:00:00 12.7 5 Norte 12 Norte 0 -- -- 65
2019-08-14 02:00:00 13.3 5 Norte 10 Norte 0 -- -- 63
2019-08-14 01:00:00 13.9 8 Norte 12 Norte 0 -- -- 61
2019-08-14 00:00:00 14.6 9 Norte 12 Norte 0 -- -- 58
2019-08-13 23:00:00 15.5 9 Norte 12 Norte 0 -- -- 56
2019-08-13 22:00:00 19.6 0 Calma 13 Oeste 0 -- -- 44
2019-08-13 21:00:00 22 6 Oeste 28 Oeste 0 -- -- 41
2019-08-13 20:00:00 23.6 17 Oeste 27 Oeste 0 -- -- 37
2019-08-13 19:00:00 24.7 12 Oeste 29 Oeste 0 -- -- 34
2019-08-13 18:00:00 24.5 13 Sudoeste 28 Oeste 0 -- -- 34
2019-08-13 17:00:00 24.1 14 Sudoeste 30 Oeste 0 -- -- 37
2019-08-13 16:00:00 23.7 14 Oeste 27 Oeste 0 -- -- 37
2019-08-13 15:00:00 22.3 14 Oeste 26 Oeste 0 -- -- 43
2019-08-13 14:00:00 21.1 11 Noroeste 23 Oeste 0 -- -- 50
2019-08-13 13:00:00 20.3 9 Noroeste 23 Oeste 0 -- -- 51
2019-08-13 12:00:00 18.8 6 Sur 13 Sur 0 -- -- 53
2019-08-13 11:00:00 15.9 6 Sudeste 13 Sur 0 -- -- 62
2019-08-13 10:00:00 14.4 8 Sudeste 12 Sudeste 0 -- -- 68
2019-08-13 09:00:00 13.3 5 Sudeste 10 Sudeste 0 -- -- 73
2019-08-13 08:00:00 11.2 6 Este 9 Este 0 -- -- 78
2019-08-13 07:00:00 11.1 2 Este 9 Nordeste 0 -- -- 78
2019-08-13 06:00:00 11.4 3 Nordeste 9 Sudeste 0 -- -- 78
2019-08-13 05:00:00 11.6 8 Este 11 Este 0 -- -- 76
2019-08-13 04:00:00 12.2 7 Este 14 Este 0 -- -- 73
2019-08-13 03:00:00 13 6 Este 13 Este 0 -- -- 69
2019-08-13 02:00:00 14.2 10 Este 15 Sudeste 0 -- -- 59
2019-08-13 01:00:00 15.2 8 Este 10 Este 0 -- -- 55
2019-08-13 00:00:00 15.1 9 Nordeste 15 Nordeste 0 -- -- 54
2019-08-12 23:00:00 15.4 8 Norte 12 Norte 0 -- -- 54
2019-08-12 22:00:00 18.5 4 Norte 15 Oeste 0 -- -- 45
2019-08-12 21:00:00 21.9 5 Sudoeste 21 Sudoeste 0 -- -- 39
2019-08-12 20:00:00 23.7 13 Sudoeste 33 Oeste 0 -- -- 37
2019-08-12 19:00:00 24.9 17 Sudoeste 31 Sudoeste 0 -- -- 31
2019-08-12 18:00:00 25.9 14 Sudoeste 32 Oeste 0 -- -- 28
2019-08-12 17:00:00 25.6 17 Sudoeste 33 Sudoeste 0 -- -- 29
2019-08-12 16:00:00 25.4 16 Sudoeste 37 Sudoeste 0 -- -- 33
2019-08-12 15:00:00 25.3 17 Sudoeste 32 Sudoeste 0 -- -- 38
2019-08-12 14:00:00 24.6 17 Oeste 30 Oeste 0 -- -- 42
2019-08-12 13:00:00 23.7 12 Sudoeste 24 Sudoeste 0 -- -- 49
2019-08-12 12:00:00 22.7 13 Sur 26 Sur 0 -- -- 53
2019-08-12 11:00:00 21.6 8 Este 18 Sudeste 0 -- -- 56
2019-08-12 10:00:00 18.6 11 Sudeste 18 Sudeste 0 -- -- 65
2019-08-12 09:00:00 17.2 8 Sudeste 15 Sur 0 -- -- 69
2019-08-12 08:00:00 17.2 8 Sudeste 14 Sur 0 -- -- 69
2019-08-12 07:00:00 17.9 6 Sudeste 14 Sudeste 0 -- -- 67
2019-08-12 06:00:00 18.8 11 Sudeste 22 Sudeste 0 -- -- 65
2019-08-12 05:00:00 18.5 3 Este 8 Noroeste 0 -- -- 62
2019-08-12 04:00:00 20.3 6 Noroeste 10 Noroeste 0 -- -- 55
2019-08-12 03:00:00 21.1 5 Noroeste 10 Oeste 0 -- -- 51
2019-08-12 02:00:00 20.7 5 Norte 11 Este 0 -- -- 52
2019-08-12 01:00:00 19.8 6 Norte 12 Norte 0 -- -- 55
2019-08-12 00:00:00 20.5 4 Norte 10 Norte 0 -- -- 50
2019-08-11 23:00:00 23.2 2 Norte 23 Oeste 0 -- -- 44
2019-08-11 22:00:00 24.2 11 Noroeste 15 Noroeste 0 -- -- 41
2019-08-11 21:00:00 26.6 7 Sudoeste 20 Sudoeste 0 -- -- 35
2019-08-11 20:00:00 28.4 9 Oeste 17 Oeste 0 -- -- 32
2019-08-11 19:00:00 28.4 8 Noroeste 25 Oeste 0 -- -- 32
2019-08-11 18:00:00 28 17 Noroeste 32 Noroeste 0 -- -- 37
2019-08-11 17:00:00 28.8 15 Oeste 32 Oeste 0 -- -- 41
2019-08-11 16:00:00 27.8 13 Oeste 26 Oeste 0 -- -- 48
2019-08-11 15:00:00 25.8 10 Noroeste 20 Noroeste 0 -- -- 61
2019-08-11 14:00:00 24.4 13 Oeste 23 Oeste 0 -- -- 68
2019-08-11 13:00:00 24.9 10 Sudoeste 25 Sudoeste 0 -- -- 65
2019-08-11 12:00:00 24.2 12 Sur 23 Sudoeste 0 -- -- 64
2019-08-11 11:00:00 22.9 8 Sur 17 Sur 0 -- -- 65
2019-08-11 10:00:00 22.7 9 Sudeste 26 Sudeste 0 -- -- 65
2019-08-11 09:00:00 22.2 15 Sudeste 24 Sudeste 0 -- -- 69
2019-08-11 08:00:00 20.2 3 Nordeste 10 Este 0 -- -- 81
2019-08-11 07:00:00 19.9 8 Este 13 Este 0 -- -- 81
2019-08-11 06:00:00 20.5 8 Este 13 Este 0 -- -- 79
2019-08-11 05:00:00 20.3 9 Este 15 Este 0 -- -- 80
2019-08-11 04:00:00 20.6 9 Este 13 Este 0 -- -- 78
2019-08-11 03:00:00 20.9 10 Este 13 Este 0 -- -- 73
2019-08-11 02:00:00 21.1 3 Este 10 Sudeste 0 -- -- 63
2019-08-11 01:00:00 20.4 3 Este 9 Norte 0 -- -- 59
2019-08-11 00:00:00 21.1 7 Norte 11 Norte 0 -- -- 56
2019-08-10 23:00:00 22.3 8 Norte 10 Norte 0 -- -- 53
2019-08-10 22:00:00 23.9 5 Noroeste 10 Sudoeste 0 -- -- 49
2019-08-10 21:00:00 27.6 5 Sur 12 Sudoeste 0 -- -- 40
2019-08-10 20:00:00 29 10 Sudoeste 20 Sudoeste 0 -- -- 36
2019-08-10 19:00:00 29.4 11 Sur 21 Sudoeste 0 -- -- 36
2019-08-10 18:00:00 30.2 8 Oeste 28 Noroeste 0 -- -- 32
2019-08-10 17:00:00 30.2 10 Oeste 27 Oeste 0 -- -- 35
2019-08-10 16:00:00 30.3 12 Oeste 26 Oeste 0 -- -- 33
2019-08-10 15:00:00 29.3 17 Oeste 30 Sudoeste 0 -- -- 35
2019-08-10 14:00:00 29.2 14 Sudoeste 29 Sudoeste 0 -- -- 37
2019-08-10 13:00:00 28.7 10 Sudoeste 24 Oeste 0 -- -- 34
2019-08-10 12:00:00 27.5 13 Oeste 30 Oeste 0 -- -- 36
2019-08-10 11:00:00 26.9 9 Oeste 22 Oeste 0 -- -- 44
2019-08-10 10:00:00 25.4 6 Este 13 Este 0 -- -- 55
2019-08-10 09:00:00 23.4 5 Este 12 Sudeste 0 -- -- 63
2019-08-10 08:00:00 19.1 6 Norte 11 Norte 0 -- -- 74
2019-08-10 07:00:00 18.1 8 Norte 10 Norte 0 -- -- 75
2019-08-10 06:00:00 19.1 5 Norte 12 Norte 0 -- -- 72
2019-08-10 05:00:00 19.4 8 Norte 12 Norte 0 -- -- 75
2019-08-10 04:00:00 21.2 2 Nordeste 15 Noroeste 0 -- -- 69
2019-08-10 03:00:00 22.5 10 Noroeste 14 Noroeste 0 -- -- 67
2019-08-10 02:00:00 23.7 11 Noroeste 20 Noroeste 0 -- -- 62
2019-08-10 01:00:00 25.2 13 Noroeste 26 Noroeste 0 -- -- 54
2019-08-10 00:00:00 25.8 3 Norte 17 Sudoeste 0 -- -- 48
2019-08-09 23:00:00 27.6 8 Oeste 15 Noroeste 0 -- -- 42
2019-08-09 22:00:00 29.3 3 Sudoeste 13 Oeste 0 -- -- 37
2019-08-09 21:00:00 30.7 7 Oeste 25 Oeste 0 -- -- 34
2019-08-09 20:00:00 33 16 Oeste 31 Oeste 0 -- -- 32
2019-08-09 19:00:00 33.5 14 Oeste 32 Oeste 0 -- -- 31
2019-08-09 18:00:00 33.6 18 Oeste 39 Oeste 0 -- -- 28
2019-08-09 17:00:00 33.5 20 Oeste 32 Oeste 0 -- -- 29
2019-08-09 16:00:00 32.9 14 Oeste 34 Oeste 0 -- -- 31
2019-08-09 15:00:00 32.6 13 Oeste 36 Sudoeste 0 -- -- 31
2019-08-09 14:00:00 32.2 23 Oeste 36 Oeste 0 -- -- 28
2019-08-09 13:00:00 31.5 18 Oeste 30 Oeste 0 -- -- 33
2019-08-09 12:00:00 30.6 14 Noroeste 27 Noroeste 0 -- -- 37
2019-08-09 11:00:00 29.4 5 Sudoeste 13 Oeste 0 -- -- 41
2019-08-09 10:00:00 27.7 4 Sur 8 Sudeste 0 -- -- 45
2019-08-09 09:00:00 24.6 0 Calma 8 Norte 0 -- -- 56
2019-08-09 08:00:00 20.4 8 Norte 11 Norte 0 -- -- 71
2019-08-09 07:00:00 20.1 5 Este 11 Nordeste 0 -- -- 68
2019-08-09 06:00:00 21.6 3 Sudeste 22 Nordeste 0 -- -- 64
2019-08-09 05:00:00 21.2 9 Nordeste 18 Nordeste 0 -- -- 67
2019-08-09 04:00:00 21.6 3 Norte 8 Norte 0 -- -- 68
2019-08-09 03:00:00 22.2 8 Norte 10 Noroeste 0 -- -- 66
2019-08-09 02:00:00 23.1 4 Norte 9 Este 0 -- -- 62
2019-08-09 01:00:00 22.6 5 Este 8 Este 0 -- -- 60
2019-08-09 00:00:00 22.8 2 Norte 14 Sudeste 0 -- -- 57
2019-08-08 23:00:00 24.2 9 Sudeste 12 Sudeste 0 -- -- 52
2019-08-08 22:00:00 24 5 Norte 10 Norte 0 -- -- 54
2019-08-08 21:00:00 28.7 4 Norte 12 Noroeste 0 -- -- 42
2019-08-08 20:00:00 30.3 10 Noroeste 21 Sudoeste 0 -- -- 38
2019-08-08 19:00:00 31.1 6 Sudoeste 27 Oeste 0 -- -- 37
2019-08-08 18:00:00 31.2 14 Sudoeste 30 Sur 0 -- -- 37
2019-08-08 17:00:00 31.1 14 Sudoeste 29 Sudoeste 0 -- -- 37
2019-08-08 16:00:00 30.4 14 Noroeste 27 Sudoeste 0 -- -- 40
2019-08-08 15:00:00 30.3 15 Oeste 27 Oeste 0 -- -- 38
2019-08-08 14:00:00 28.7 10 Oeste 23 Oeste 0 -- -- 43
2019-08-08 13:00:00 28.7 10 Oeste 22 Oeste 0 -- -- 44
2019-08-08 12:00:00 27.1 9 Oeste 20 Oeste 0 -- -- 48
2019-08-08 11:00:00 25.9 5 Oeste 13 Noroeste 0 -- -- 53
2019-08-08 10:00:00 23.7 6 Sudeste 12 Sudeste 0 -- -- 71
2019-08-08 09:00:00 21.4 5 Sudeste 10 Sudeste 0 -- -- 74
2019-08-08 08:00:00 17.2 3 Este 9 Norte 0 -- -- 83
2019-08-08 07:00:00 16 3 Norte 10 Norte 0 -- -- 83
2019-08-08 06:00:00 16.2 4 Norte 9 Norte 0 -- -- 83
2019-08-08 05:00:00 17.4 2 Noroeste 8 Norte 0 -- -- 79
2019-08-08 04:00:00 18 0 Calma 10 Norte 0 -- -- 80
2019-08-08 03:00:00 18 6 Norte 9 Norte 0 -- -- 81
2019-08-08 02:00:00 18.7 3 Nordeste 9 Norte 0 -- -- 80
2019-08-08 01:00:00 18.9 4 Norte 12 Norte 0 -- -- 80
2019-08-08 00:00:00 19.5 5 Noroeste 13 Norte 0 -- -- 78
2019-08-07 23:00:00 20.6 3 Oeste 14 Nordeste 0 -- -- 73
2019-08-07 22:00:00 21.1 0 Calma 14 Norte 0 -- -- 76
2019-08-07 21:00:00 21.8 9 Norte 21 Nordeste 0 -- -- 72
2019-08-07 20:00:00 22 9 Norte 19 Oeste 0 -- -- 72
2019-08-07 19:00:00 23.3 6 Sudeste 25 Este 0 -- -- 63
2019-08-07 18:00:00 24.4 9 Sudeste 29 Norte 0 -- -- 58
2019-08-07 17:00:00 23.8 10 Noroeste 28 Oeste 0 -- -- 57
2019-08-07 16:00:00 26 19 Norte 40 Sudoeste 0 -- -- 50
2019-08-07 15:00:00 28.9 17 Sur 30 Sur 0 -- -- 54
2019-08-07 14:00:00 29.2 10 Sur 23 Sudoeste 0 -- -- 51
2019-08-07 13:00:00 27.4 9 Sur 16 Sudoeste 0 -- -- 58
2019-08-07 12:00:00 26.7 9 Sur 21 Este 0 -- -- 61
2019-08-07 11:00:00 26.1 10 Este 16 Este 0 -- -- 64
2019-08-07 10:00:00 23.3 8 Sudeste 22 Este 0 -- -- 73
2019-08-07 09:00:00 22.6 9 Sudeste 15 Sudeste 0 -- -- 77
2019-08-07 08:00:00 21.4 6 Sudeste 17 Sudeste 0 -- -- 79
2019-08-07 07:00:00 20.9 12 Sudeste 27 Sudeste 0 -- -- 79
2019-08-07 06:00:00 21.1 10 Este 15 Sudeste 0 -- -- 75
2019-08-07 05:00:00 21.6 6 Este 15 Sudeste 0 -- -- 70
2019-08-07 04:00:00 22.4 9 Este 12 Este 0 -- -- 65
2019-08-07 03:00:00 22.5 10 Este 13 Este 0 -- -- 54
2019-08-07 02:00:00 23.8 12 Nordeste 18 Nordeste 0 -- -- 51
2019-08-07 01:00:00 23.1 7 Este 9 Este 0 -- -- 57
2019-08-07 00:00:00 23.1 6 Nordeste 9 Nordeste 0 -- -- 56
2019-08-06 23:00:00 22.8 3 Nordeste 10 Este 0 -- -- 51
2019-08-06 22:00:00 24.7 6 Este 11 Este 0 -- -- 44
2019-08-06 21:00:00 28.7 0 Calma 9 Sudoeste 0 -- -- 36
2019-08-06 20:00:00 30.5 5 Oeste 17 Oeste 0 -- -- 33
2019-08-06 19:00:00 32.2 9 Oeste 17 Oeste 0 -- -- 31
2019-08-06 18:00:00 31.3 7 Sur 24 Sudoeste 0 -- -- 33
2019-08-06 17:00:00 31.1 14 Sudoeste 27 Sudoeste 0 -- -- 40
2019-08-06 16:00:00 31.6 16 Sudoeste 27 Sudoeste 0 -- -- 39
2019-08-06 15:00:00 31.4 12 Sur 28 Sudeste 0 -- -- 38
2019-08-06 14:00:00 30.3 15 Sur 29 Sur 0 -- -- 41
2019-08-06 13:00:00 30.1 12 Sudeste 28 Sur 0 -- -- 41
2019-08-06 12:00:00 28.3 12 Sur 25 Sur 0 -- -- 45
2019-08-06 11:00:00 27.4 7 Sudeste 19 Sudeste 0 -- -- 49
2019-08-06 10:00:00 25.9 8 Sudeste 21 Este 0 -- -- 51
2019-08-06 09:00:00 24.6 8 Este 14 Este 0 -- -- 56
2019-08-06 08:00:00 21.3 6 Este 10 Este 0 -- -- 65
2019-08-06 07:00:00 19.5 9 Sudeste 15 Este 0 -- -- 65
2019-08-06 06:00:00 20.4 12 Este 18 Este 0 -- -- 62
2019-08-06 05:00:00 21.1 6 Este 10 Este 0 -- -- 59
2019-08-06 04:00:00 21.3 4 Este 15 Este 0 -- -- 58
2019-08-06 03:00:00 21.8 9 Este 12 Este 0 -- -- 58
2019-08-06 02:00:00 23.2 9 Este 15 Este 0 -- -- 54
2019-08-06 01:00:00 22.3 8 Este 17 Este 0 -- -- 57
2019-08-06 00:00:00 24.3 10 Este 27 Sudeste 0 -- -- 52
2019-08-05 23:00:00 25.1 17 Sudeste 26 Sudeste 0 -- -- 50
2019-08-05 22:00:00 26.5 10 Sudeste 22 Sur 0 -- -- 53
2019-08-05 21:00:00 28.7 12 Sudeste 24 Sudeste 0 -- -- 50
2019-08-05 20:00:00 30.2 14 Sur 23 Sudeste 0 -- -- 43
2019-08-05 19:00:00 31.7 13 Sur 24 Sur 0 -- -- 38
2019-08-05 18:00:00 33 8 Sur 20 Sur 0 -- -- 31
2019-08-05 17:00:00 32.6 9 Sudeste 24 Sur 0 -- -- 34
2019-08-05 16:00:00 31.6 11 Sur 28 Sur -- -- -- 36
2019-08-05 15:00:00 30.8 14 Sur 26 Sudeste 0 -- -- 38
2019-08-05 14:00:00 30.3 13 Sur 24 Sudeste 0 -- -- 40
2019-08-05 13:00:00 30.1 8 Sur 21 Sudeste 0 -- -- 39
2019-08-05 12:00:00 28.8 9 Sudeste 22 Sudeste 0 -- -- 41
2019-08-05 11:00:00 26.7 9 Sur 18 Sudeste 0 -- -- 45
2019-08-05 10:00:00 25.2 5 Sudeste 11 Este 0 -- -- 52
2019-08-05 09:00:00 22.6 4 Sudeste 8 Este 0 -- -- 63
2019-08-05 08:00:00 18.9 2 Norte 8 Norte 0 -- -- 75
2019-08-05 07:00:00 17.6 5 Norte 9 Norte 0 -- -- 78
2019-08-05 06:00:00 17.9 3 Este 5 Nordeste 0 -- -- 79
2019-08-05 05:00:00 18.1 3 Nordeste 8 Norte 0 -- -- 79
2019-08-05 04:00:00 19 3 Este 8 Norte 0 -- -- 75
2019-08-05 03:00:00 19.5 3 Nordeste 6 Noroeste 0 -- -- 74
2019-08-05 02:00:00 19.9 4 Norte 8 Norte 0 -- -- 72
2019-08-05 01:00:00 20.5 7 Norte 11 Norte 0 -- -- 70
2019-08-05 00:00:00 23.4 10 Este 14 Este 0 -- -- 61
2019-08-04 23:00:00 24.3 8 Sudeste 18 Este 0 -- -- 60
2019-08-04 22:00:00 25.7 10 Este 23 Sur 0 -- -- 57
2019-08-04 21:00:00 27.8 17 Sur 33 Sur 0 -- -- 53
2019-08-04 20:00:00 29.7 18 Sur 27 Sur 0 -- -- 48
2019-08-04 19:00:00 31.5 18 Sur 28 Sur 0 -- -- 37
2019-08-04 18:00:00 32.7 11 Sur 22 Sudeste 0 -- -- 33
2019-08-04 17:00:00 31.5 14 Sur 33 Sur 0 -- -- 39
2019-08-04 16:00:00 32.5 16 Sur 28 Sudeste 0 -- -- 34
2019-08-04 15:00:00 32.4 12 Sur 26 Sudeste 0 -- -- 35
2019-08-04 14:00:00 31.7 10 Sudeste 21 Sudeste 0 -- -- 36
2019-08-04 13:00:00 30.6 11 Sudeste 22 Sudeste 0 -- -- 39
2019-08-04 12:00:00 29.3 11 Sudeste 20 Este 0 -- -- 41
2019-08-04 11:00:00 27.5 8 Sudeste 14 Sudeste 0 -- -- 46
2019-08-04 10:00:00 25.9 8 Sudeste 15 Este 0 -- -- 50
2019-08-04 09:00:00 23 6 Sudeste 10 Sudeste 0 -- -- 60
2019-08-04 08:00:00 19.1 2 Nordeste 7 Norte 0 -- -- 70
2019-08-04 07:00:00 19 4 Sudeste 8 Este 0 -- -- 70
2019-08-04 06:00:00 18.7 4 Sudeste 10 Este 0 -- -- 71
2019-08-04 05:00:00 18.2 4 Este 6 Este 0 -- -- 74
2019-08-04 04:00:00 18.1 4 Nordeste 6 Nordeste 0 -- -- 74
2019-08-04 03:00:00 18.7 3 Nordeste 10 Norte 0 -- -- 72
2019-08-04 02:00:00 19 8 Norte 11 Norte 0 -- -- 71
2019-08-04 01:00:00 19.9 2 Norte 9 Norte 0 -- -- 69
2019-08-04 00:00:00 21.6 5 Norte 15 Sur 0 -- -- 64
2019-08-03 23:00:00 24.2 8 Sudeste 11 Sudeste 0 -- -- 57
2019-08-03 22:00:00 25.6 6 Sudeste 17 Sudeste 0 -- -- 54
2019-08-03 21:00:00 27.4 11 Sur 24 Sudoeste 0 -- -- 49
2019-08-03 20:00:00 29.7 13 Sur 22 Sur 0 -- -- 43
2019-08-03 19:00:00 30.9 15 Sur 27 Sur 0 -- -- 37
2019-08-03 18:00:00 32.2 11 Sur 26 Sudoeste 0 -- -- 30
2019-08-03 17:00:00 32.2 12 Sur 26 Sur 0 -- -- 32
2019-08-03 16:00:00 31.7 12 Sur 26 Sudeste 0 -- -- 31
2019-08-03 15:00:00 30.9 14 Sur 27 Sur 0 -- -- 35
2019-08-03 14:00:00 30.9 10 Sudeste 19 Sudeste 0 -- -- 35
2019-08-03 13:00:00 29.9 7 Sudeste 20 Sudeste 0 -- -- 37
2019-08-03 12:00:00 27.7 6 Sur 19 Sur 0 -- -- 44
2019-08-03 11:00:00 25.7 9 Sudeste 15 Sudeste 0 -- -- 47
2019-08-03 10:00:00 24.1 6 Sur 11 Sur 0 -- -- 53
2019-08-03 09:00:00 21.3 0 Calma 7 Norte 0 -- -- 61
2019-08-03 08:00:00 17.6 5 Norte 8 Norte 0 -- -- 75
2019-08-03 07:00:00 16 5 Norte 10 Norte 0 -- -- 78
2019-08-03 06:00:00 16.6 7 Norte 11 Norte 0 -- -- 76
2019-08-03 05:00:00 16.4 5 Norte 9 Norte 0 -- -- 75
2019-08-03 04:00:00 17.1 3 Norte 9 Norte 0 -- -- 73
2019-08-03 03:00:00 17.1 5 Norte 9 Norte 0 -- -- 74
2019-08-03 02:00:00 17.8 5 Norte 10 Norte 0 -- -- 70
2019-08-03 01:00:00 20.3 5 Este 13 Este 0 -- -- 63
2019-08-03 00:00:00 21.6 5 Sudeste 10 Sudeste 0 -- -- 58
2019-08-02 23:00:00 22.9 6 Este 21 Sudeste 0 -- -- 54
2019-08-02 22:00:00 24.2 13 Este 22 Sudeste 0 -- -- 49
2019-08-02 21:00:00 28.1 7 Sudoeste 23 Sudoeste 0 -- -- 36
2019-08-02 20:00:00 29.5 10 Sudoeste 30 Sudoeste 0 -- -- 34
2019-08-02 19:00:00 30.2 12 Sudoeste 28 Oeste 0 -- -- 34
2019-08-02 18:00:00 30 14 Oeste 31 Oeste 0 -- -- 38
2019-08-02 17:00:00 29.7 18 Sudoeste 36 Sudoeste 0 -- -- 39
2019-08-02 16:00:00 29.9 10 Oeste 33 Sudoeste 0 -- -- 40
2019-08-02 15:00:00 29.4 13 Sudoeste 29 Sudoeste 0 -- -- 39
2019-08-02 14:00:00 29.2 10 Oeste 22 Oeste 0 -- -- 35
2019-08-02 13:00:00 27.2 11 Oeste 19 Noroeste 0 -- -- 45
2019-08-02 12:00:00 25.8 9 Oeste 21 Oeste 0 -- -- 46
2019-08-02 11:00:00 24.3 8 Noroeste 15 Oeste 0 -- -- 50
2019-08-02 10:00:00 22.6 5 Oeste 10 Oeste 0 -- -- 57
2019-08-02 09:00:00 20.4 3 Sudoeste 5 Sur 0 -- -- 65
2019-08-02 08:00:00 17 2 Norte 6 Norte 0 -- -- 78
2019-08-02 07:00:00 17.1 5 Norte 9 Norte 0 -- -- 77
2019-08-02 06:00:00 18.6 5 Noroeste 8 Norte 0 -- -- 74
2019-08-02 05:00:00 19.3 4 Este 10 Norte 0 -- -- 69
2019-08-02 04:00:00 18.6 3 Noroeste 13 Norte 0 -- -- 73
2019-08-02 03:00:00 18.6 6 Sudeste 17 Este 0 -- -- 75
2019-08-02 02:00:00 19.7 8 Sudeste 21 Sudeste 0 -- -- 70
2019-08-02 01:00:00 21.2 7 Sudeste 16 Sur 0 -- -- 59
2019-08-02 00:00:00 20.9 3 Norte 8 Norte 0 -- -- 59
2019-08-01 23:00:00 22.9 5 Sur 12 Sudeste 0 -- -- 52
2019-08-01 22:00:00 22.6 4 Norte 9 Norte 0 -- -- 51
2019-08-01 21:00:00 26.8 4 Sudoeste 11 Sur 0 -- -- 41
2019-08-01 20:00:00 28.6 7 Sudeste 16 Sudeste 0 -- -- 37
2019-08-01 19:00:00 29.4 10 Sudeste 20 Sudeste 0 -- -- 36
2019-08-01 18:00:00 29.7 9 Sudeste 21 Sudeste 0 -- -- 35
2019-08-01 17:00:00 29.8 9 Sudeste 24 Sur 0 -- -- 34
2019-08-01 16:00:00 29.5 9 Este 23 Sudeste 0 -- -- 33
2019-08-01 15:00:00 28.7 14 Sur 28 Sur 0 -- -- 35
2019-08-01 14:00:00 28.6 13 Sur 25 Sur 0 -- -- 33
2019-08-01 13:00:00 27.4 13 Sur 23 Sur 0 -- -- 35
2019-08-01 12:00:00 26.6 12 Sudeste 24 Sur 0 -- -- 39
2019-08-01 11:00:00 24.3 15 Sudeste 26 Sudeste 0 -- -- 45
2019-08-01 10:00:00 22.9 12 Sur 20 Sur 0 -- -- 60
2019-08-01 09:00:00 22.2 8 Este 14 Sudeste 0 -- -- 69
2019-08-01 08:00:00 19.5 8 Este 16 Este 0 -- -- 77
2019-08-01 07:00:00 18.4 15 Este 21 Este 0 -- -- 80
2019-08-01 06:00:00 17.8 8 Este 15 Este 0 -- -- 78
2019-08-01 05:00:00 18 5 Este 16 Este 0 -- -- 76
2019-08-01 04:00:00 17.5 12 Este 17 Este 0 -- -- 79
2019-08-01 03:00:00 17.3 5 Norte 10 Norte 0 -- -- 80
2019-08-01 02:00:00 19.1 8 Este 11 Este 0 -- -- 76
2019-08-01 01:00:00 19.6 5 Este 16 Nordeste 0 -- -- 74
2019-08-01 00:00:00 19.5 3 Nordeste 9 Nordeste 0 -- -- 68
2019-07-31 23:00:00 19 3 Norte 9 Norte 0 -- -- 66
2019-07-31 22:00:00 22.3 3 Este 13 Sudeste 0 -- -- 56
2019-07-31 21:00:00 24.3 7 Sur 15 Sur 0 -- -- 52
2019-07-31 20:00:00 25.7 8 Sudeste 18 Sudoeste 0 -- -- 46
2019-07-31 19:00:00 26.5 10 Sur 24 Sur 0 -- -- 44
2019-07-31 18:00:00 26.7 10 Sur 21 Sur 0 -- -- 44
2019-07-31 17:00:00 26.8 11 Sudeste 24 Sur 0 -- -- 45
2019-07-31 16:00:00 26 13 Sudoeste 31 Sur 0 -- -- 43
2019-07-31 15:00:00 26.4 12 Sur 28 Sur 0 -- -- 41
2019-07-31 14:00:00 26.7 13 Sur 30 Sur 0 -- -- 36
2019-07-31 13:00:00 26.2 6 Sudeste 14 Este 0 -- -- 33
2019-07-31 12:00:00 23.8 6 Sudeste 17 Este 0 -- -- 41
2019-07-31 11:00:00 21.3 7 Este 16 Este 0 -- -- 48
2019-07-31 10:00:00 18.2 8 Este 15 Este 0 -- -- 60
2019-07-31 09:00:00 16.7 8 Sudeste 13 Este 0 -- -- 62
2019-07-31 08:00:00 13.9 3 Sudeste 6 Este 0 -- -- 70
2019-07-31 07:00:00 12.7 4 Este 6 Este 0 -- -- 71
2019-07-31 06:00:00 12.2 3 Nordeste 8 Noroeste 0 -- -- 70
2019-07-31 05:00:00 12.6 2 Norte 6 Nordeste 0 -- -- 67
2019-07-31 04:00:00 13.7 3 Este 8 Este 0 -- -- 64
2019-07-31 03:00:00 13.4 4 Nordeste 10 Norte 0 -- -- 62
2019-07-31 02:00:00 14 5 Norte 10 Noroeste 0 -- -- 60
2019-07-31 01:00:00 14.1 9 Norte 11 Norte 0 -- -- 58
2019-07-31 00:00:00 15 9 Norte 16 Norte 0 -- -- 58
2019-07-30 23:00:00 17 8 Noroeste 13 Norte 0 -- -- 50
2019-07-30 22:00:00 20.4 5 Noroeste 14 Sudoeste 0 -- -- 41
2019-07-30 21:00:00 23.4 10 Sudoeste 26 Sudoeste 0 -- -- 37
2019-07-30 20:00:00 25.5 15 Oeste 25 Oeste 0 -- -- 34
2019-07-30 19:00:00 26.7 13 Sudoeste 29 Oeste 0 -- -- 30
2019-07-30 18:00:00 27.3 15 Oeste 31 Oeste 0 -- -- 32
2019-07-30 17:00:00 27 14 Oeste 30 Oeste 0 -- -- 39
2019-07-30 16:00:00 26 13 Sudoeste 27 Oeste 0 -- -- 48
2019-07-30 15:00:00 25.3 10 Sur 24 Sur 0 -- -- 51
2019-07-30 14:00:00 23.9 8 Sur 25 Sudeste 0 -- -- 53
2019-07-30 13:00:00 22.6 13 Sur 27 Sudeste 0 -- -- 58
2019-07-30 12:00:00 22.1 15 Sur 24 Sur 0 -- -- 60
2019-07-30 11:00:00 21.2 9 Sudeste 24 Sur 0 -- -- 66
2019-07-30 10:00:00 20 11 Sudeste 19 Sudeste 0 -- -- 71
2019-07-30 09:00:00 20.3 12 Sudeste 20 Este 0 -- -- 73
2019-07-30 08:00:00 18.7 12 Sudeste 18 Sudeste 0 -- -- 78
2019-07-30 07:00:00 18.6 5 Sudeste 12 Sur 0 -- -- 72
2019-07-30 06:00:00 17.8 4 Este 8 Nordeste 0 -- -- 69
2019-07-30 05:00:00 18.2 5 Este 10 Norte 0 -- -- 66
2019-07-30 04:00:00 20 5 Este 14 Este 0 -- -- 58
2019-07-30 03:00:00 20.4 3 Este 13 Nordeste 0 -- -- 60
2019-07-30 02:00:00 20.9 9 Este 13 Este 0 -- -- 58
2019-07-30 01:00:00 22.4 9 Sudeste 17 Sudeste 0 -- -- 52
2019-07-30 00:00:00 22.8 7 Este 16 Sudeste 0 -- -- 49
2019-07-29 23:00:00 22.8 9 Sudeste 17 Este 0 -- -- 44
2019-07-29 22:00:00 24.6 4 Sudeste 9 Sur 0 -- -- 38
2019-07-29 21:00:00 29 3 Sudoeste 17 Oeste 0 -- -- 29
2019-07-29 20:00:00 29.4 10 Noroeste 20 Oeste 0 -- -- 29
2019-07-29 19:00:00 29.8 11 Oeste 20 Noroeste 0 -- -- 28
2019-07-29 18:00:00 29.7 11 Sudoeste 28 Oeste 0 -- -- 30
2019-07-29 17:00:00 29.6 8 Noroeste 26 Oeste 0 -- -- 29
2019-07-29 16:00:00 28.9 14 Noroeste 27 Oeste 0 -- -- 29
2019-07-29 15:00:00 28.5 8 Oeste 25 Oeste 0 -- -- 29
2019-07-29 14:00:00 27.3 13 Oeste 22 Oeste 0 -- -- 30
2019-07-29 13:00:00 26.2 14 Oeste 25 Oeste 0 -- -- 30
2019-07-29 12:00:00 25.2 12 Noroeste 19 Oeste 0 -- -- 36
2019-07-29 11:00:00 23.3 9 Oeste 15 Oeste 0 -- -- 34
2019-07-29 10:00:00 20.8 3 Sur 9 Sudeste 0 -- -- 53
2019-07-29 09:00:00 18.4 2 Sur 5 Este 0 -- -- 59
2019-07-29 08:00:00 13.7 3 Norte 9 Norte 0 -- -- 74
2019-07-29 07:00:00 11.6 7 Norte 9 Norte 0 -- -- 77
2019-07-29 06:00:00 12.1 3 Norte 10 Norte 0 -- -- 75
2019-07-29 05:00:00 12.3 6 Norte 10 Norte 0 -- -- 74
2019-07-29 04:00:00 13 2 Nordeste 8 Nordeste 0 -- -- 70
2019-07-29 03:00:00 13.3 5 Norte 10 Norte 0 -- -- 69
2019-07-29 02:00:00 13.6 5 Norte 11 Norte 0 -- -- 68
2019-07-29 01:00:00 14.6 7 Norte 13 Nordeste 0 -- -- 64
2019-07-29 00:00:00 15.1 7 Norte 13 Norte 0 -- -- 62
2019-07-28 23:00:00 16.1 8 Norte 11 Oeste 0 -- -- 62
2019-07-28 22:00:00 20.6 9 Oeste 16 Oeste 0 -- -- 44
2019-07-28 21:00:00 23 11 Oeste 26 Oeste 0 -- -- 42
2019-07-28 20:00:00 24.5 17 Oeste 26 Sudoeste 0 -- -- 39
2019-07-28 19:00:00 25.1 15 Oeste 26 Sudoeste 0 -- -- 38
2019-07-28 18:00:00 25.5 15 Oeste 28 Oeste 0 -- -- 36
2019-07-28 17:00:00 25.9 12 Oeste 24 Noroeste 0 -- -- 34
2019-07-28 16:00:00 24.7 8 Oeste 26 Oeste 0 -- -- 33
2019-07-28 15:00:00 24.6 13 Oeste 25 Noroeste 0 -- -- 36
2019-07-28 14:00:00 24 9 Sur 23 Oeste 0 -- -- 33
2019-07-28 13:00:00 22.8 9 Sudoeste 23 Oeste 0 -- -- 34
2019-07-28 12:00:00 21.2 13 Oeste 21 Oeste 0 -- -- 38
2019-07-28 11:00:00 20 10 Noroeste 17 Noroeste 0 -- -- 45
2019-07-28 10:00:00 19.4 6 Sudeste 14 Este 0 -- -- 46
2019-07-28 09:00:00 16.4 2 Este 11 Oeste 0 -- -- 62
2019-07-28 08:00:00 13.3 8 Norte 13 Norte 0 -- -- 75
2019-07-28 07:00:00 10.5 13 Norte 20 Norte 0 -- -- 82
2019-07-28 06:00:00 11 9 Noroeste 12 Norte 0 -- -- 81
2019-07-28 05:00:00 12.7 6 Este 17 Noroeste 0 -- -- 75
2019-07-28 04:00:00 12.2 9 Noroeste 18 Norte 0 -- -- 82
2019-07-28 03:00:00 13.1 8 Noroeste 14 Noroeste 0 -- -- 79
2019-07-28 02:00:00 14.2 8 Noroeste 17 Oeste 0 -- -- 79
2019-07-28 01:00:00 15.2 12 Noroeste 22 Oeste 0 -- -- 77
2019-07-28 00:00:00 16.7 14 Oeste 21 Noroeste 0 -- -- 71
2019-07-27 23:00:00 17.5 11 Oeste 20 Noroeste 0 -- -- 69
2019-07-26 12:00:00 -- -- -- -- -- -- -- -- --
2019-07-26 11:00:00 27 10 Este 22 Este 0 -- -- 42
2019-07-26 10:00:00 25.4 12 Este 24 Este 0 -- -- 47
2019-07-26 09:00:00 22.2 16 Este 30 Este 0 -- -- 54
2019-07-26 08:00:00 21.4 23 Nordeste 28 Nordeste 0 -- -- 58
2019-07-26 07:00:00 21.6 18 Nordeste 26 Este 0 -- -- 56
2019-07-26 06:00:00 21.4 10 Nordeste 17 Este 0 -- -- 56
2019-07-26 05:00:00 21.1 9 Este 24 Este 0 -- -- 59
2019-07-26 04:00:00 21.1 8 Este 16 Nordeste 0 -- -- 56
2019-07-26 03:00:00 21.5 12 Nordeste 15 Nordeste 0 -- -- 54
2019-07-26 02:00:00 21.7 6 Sudeste 14 Este 0 -- -- 55
2019-07-26 01:00:00 22.3 8 Este 16 Este 0 -- -- 53
2019-07-26 00:00:00 22.7 6 Nordeste 14 Este 0 -- -- 54
2019-07-25 23:00:00 25 4 Noroeste 20 Sudoeste 0 -- -- 48
2019-07-25 22:00:00 25.5 12 Este 17 Este 0 -- -- 46
2019-07-25 21:00:00 27.6 11 Sudeste 32 Sudoeste 0 -- -- 44
2019-07-25 20:00:00 29.2 18 Sur 39 Sur 0 -- -- 45
2019-07-25 19:00:00 31.8 23 Sur 37 Sur 0 -- -- 33
2019-07-25 18:00:00 32.8 19 Sudeste 38 Sur 0 -- -- 32
2019-07-25 17:00:00 33.5 19 Sur 36 Sudeste 0 -- -- 29
2019-07-25 16:00:00 34.1 15 Sudeste 27 Sudeste 0 -- -- 26
2019-07-25 15:00:00 33.8 17 Sudeste 28 Sudeste 0 -- -- 24
2019-07-25 14:00:00 33.4 14 Sudeste 28 Este 0 -- -- 26
2019-07-25 13:00:00 31.8 14 Sur 26 Sur 0 -- -- 28
2019-07-25 12:00:00 30.5 12 Sudeste 22 Sudeste 0 -- -- 32
2019-07-25 11:00:00 28.1 10 Sur 16 Sudeste 0 -- -- 40
2019-07-25 10:00:00 27.4 8 Sudeste 13 Este 0 -- -- 41
2019-07-25 09:00:00 24.1 3 Sudoeste 6 Sudoeste 0 -- -- 51
2019-07-25 08:00:00 20.8 3 Sudeste 7 Este 0 -- -- 61
2019-07-25 07:00:00 18.5 4 Norte 7 Norte 0 -- -- 62
2019-07-25 06:00:00 19.2 3 Noroeste 7 Noroeste 0 -- -- 60
2019-07-25 05:00:00 19.2 2 Norte 7 Norte 0 -- -- 60
2019-07-25 04:00:00 19.6 0 Calma 8 Norte 0 -- -- 59
2019-07-25 03:00:00 21.1 3 Nordeste 9 Nordeste 0 -- -- 56
2019-07-25 02:00:00 20.6 6 Norte 9 Norte 0 -- -- 57
2019-07-25 01:00:00 21.8 4 Norte 16 Nordeste 0 -- -- 54
2019-07-25 00:00:00 24.4 10 Este 17 Este 0 -- -- 49
2019-07-24 23:00:00 26 10 Este 21 Sudeste 0 -- -- 47
2019-07-24 22:00:00 27.7 8 Sudeste 18 Sur 0 -- -- 45
2019-07-24 21:00:00 30.4 10 Sur 22 Sur 0 -- -- 38
2019-07-24 20:00:00 33.2 12 Sur 21 Sur 0 -- -- 30
2019-07-24 19:00:00 34.4 12 Sudoeste 26 Sudoeste 0 -- -- 23
2019-07-24 18:00:00 35 12 Sudoeste 26 Sur 0 -- -- 21
2019-07-24 17:00:00 35.4 13 Sudoeste 30 Sudoeste 0 -- -- 22
2019-07-24 16:00:00 34.9 14 Sur 27 Sur 0 -- -- 22
2019-07-24 15:00:00 34.9 12 Sur 25 Sur 0 -- -- 24
2019-07-24 14:00:00 34.4 12 Sur 23 Sur 0 -- -- 26
2019-07-24 13:00:00 33.7 8 Sur 18 Sudeste 0 -- -- 27
2019-07-24 12:00:00 32.1 11 Sudeste 19 Este 0 -- -- 31
2019-07-24 11:00:00 29.9 9 Este 16 Sudeste 0 -- -- 33
2019-07-24 10:00:00 27.2 8 Sudeste 14 Sudeste 0 -- -- 39
2019-07-24 09:00:00 24.7 3 Sudoeste 7 Este 0 -- -- 43
2019-07-24 08:00:00 20.7 0 Calma 15 Norte 0 -- -- 51
2019-07-24 07:00:00 19.1 13 Norte 15 Norte 0 -- -- 51
2019-07-24 06:00:00 19.3 3 Nordeste 14 Norte 0 -- -- 51
2019-07-24 05:00:00 19.9 8 Norte 14 Norte 0 -- -- 49
2019-07-24 04:00:00 21.6 11 Norte 22 Noroeste 0 -- -- 44
2019-07-24 03:00:00 20.3 8 Norte 18 Norte 0 -- -- 50
2019-07-24 02:00:00 21.5 4 Nordeste 12 Nordeste 0 -- -- 45
2019-07-24 01:00:00 23.1 13 Nordeste 17 Nordeste 0 -- -- 41
2019-07-24 00:00:00 22.6 6 Nordeste 12 Norte 0 -- -- 43
2019-07-23 23:00:00 24.8 4 Nordeste 10 Sudeste 0 -- -- 40
2019-07-23 22:00:00 26.6 3 Norte 18 Sur 0 -- -- 39
2019-07-23 21:00:00 30.2 10 Sudeste 25 Sur 0 -- -- 32
2019-07-23 20:00:00 32.9 15 Sur 26 Sudeste 0 -- -- 28
2019-07-23 19:00:00 34.5 13 Sur 26 Sudoeste 0 -- -- 22
2019-07-23 18:00:00 35.5 14 Sudoeste 29 Sudoeste 0 -- -- 20
2019-07-23 17:00:00 35.5 12 Sur 28 Sudoeste 0 -- -- 22
2019-07-23 16:00:00 35.9 10 Sudoeste 31 Sudoeste 0 -- -- 21
2019-07-23 15:00:00 35.4 12 Oeste 30 Sudoeste 0 -- -- 21
2019-07-23 14:00:00 35.2 14 Sur 25 Sudoeste 0 -- -- 20
2019-07-23 13:00:00 34.1 9 Oeste 20 Oeste 0 -- -- 24
2019-07-23 12:00:00 33.5 7 Sudeste 13 Sudeste 0 -- -- 26
2019-07-23 11:00:00 31.7 6 Sudeste 17 Este 0 -- -- 25
2019-07-23 10:00:00 29.4 10 Sudeste 17 Este 0 -- -- 34
2019-07-23 09:00:00 26.8 3 Sur 16 Este 0 -- -- 40
2019-07-23 08:00:00 23.6 6 Este 13 Nordeste 0 -- -- 44
2019-07-23 07:00:00 18.9 8 Norte 12 Norte 0 -- -- 50
2019-07-23 06:00:00 19 9 Nordeste 13 Nordeste 0 -- -- 52
2019-07-23 05:00:00 19.4 5 Nordeste 14 Nordeste 0 -- -- 53
2019-07-23 04:00:00 19.8 2 Nordeste 11 Nordeste 0 -- -- 50
2019-07-23 03:00:00 20 5 Norte 10 Norte 0 -- -- 48
2019-07-23 02:00:00 20.7 5 Noroeste 12 Norte 0 -- -- 51
2019-07-23 01:00:00 20.5 9 Norte 12 Norte 0 -- -- 55
2019-07-23 00:00:00 23.3 5 Norte 15 Este 0 -- -- 46
2019-07-22 23:00:00 26.7 9 Sudeste 18 Sudeste 0 -- -- 38
2019-07-22 22:00:00 27.5 5 Este 17 Sudeste 0 -- -- 34
2019-07-22 21:00:00 29.8 13 Sur 21 Sur 0 -- -- 31
2019-07-22 20:00:00 32.1 10 Sur 25 Sur 0 -- -- 28
2019-07-22 19:00:00 33.8 15 Sudoeste 25 Sur 0 -- -- 23
2019-07-22 18:00:00 34.6 13 Sudoeste 35 Sur 0 -- -- 22
2019-07-22 17:00:00 34.9 12 Sur 26 Sudoeste 0 -- -- 21
2019-07-22 16:00:00 34.9 11 Sudoeste 27 Sur 0 -- -- 22
2019-07-22 15:00:00 34.6 10 Sur 29 Sudoeste 0 -- -- 25
2019-07-22 14:00:00 34.2 10 Sur 24 Sur 0 -- -- 28
2019-07-22 13:00:00 33.3 9 Sudeste 20 Sur 0 -- -- 26
2019-07-22 12:00:00 31.8 6 Sudeste 15 Sudeste 0 -- -- 27
2019-07-22 11:00:00 30.7 6 Sudeste 20 Sudeste 0 -- -- 36
2019-07-22 10:00:00 28.7 14 Este 20 Este 0 -- -- 42
2019-07-22 09:00:00 26.2 10 Este 21 Este 0 -- -- 48
2019-07-22 08:00:00 22.9 10 Este 18 Nordeste 0 -- -- 55
2019-07-22 07:00:00 20.7 6 Este 14 Nordeste 0 -- -- 59
2019-07-22 06:00:00 20.1 4 Este 10 Norte 0 -- -- 60
2019-07-22 05:00:00 19.4 9 Norte 11 Noroeste 0 -- -- 62
2019-07-22 04:00:00 20.4 0 Calma 12 Nordeste 0 -- -- 58
2019-07-22 03:00:00 20.1 3 Nordeste 11 Norte 0 -- -- 61
2019-07-22 02:00:00 20.2 3 Nordeste 8 Nordeste 0 -- -- 58
2019-07-22 01:00:00 20.7 4 Nordeste 7 Nordeste 0 -- -- 57
2019-07-22 00:00:00 21.8 3 Nordeste 9 Este 0 -- -- 55
2019-07-21 23:00:00 23.9 4 Este 8 Este 0 -- -- 50
2019-07-21 22:00:00 26.7 4 Sudeste 20 Sudeste 0 -- -- 40
2019-07-21 21:00:00 28.3 10 Sudeste 20 Sur 0 -- -- 40
2019-07-21 20:00:00 30.2 10 Sur 26 Sur 0 -- -- 42
2019-07-21 19:00:00 31.7 13 Sur 26 Sur 0 -- -- 35
2019-07-21 18:00:00 32.5 12 Sur 22 Sudoeste 0 -- -- 31
2019-07-21 17:00:00 32.7 13 Sudoeste 24 Sur 0 -- -- 30
2019-07-21 16:00:00 32.2 12 Sur 30 Sudoeste 0 -- -- 31
2019-07-21 15:00:00 32.1 14 Sur 25 Sur 0 -- -- 31
2019-07-21 14:00:00 31.5 13 Sur 24 Este 0 -- -- 35
2019-07-21 13:00:00 30.6 10 Sudeste 24 Sur 0 -- -- 36
2019-07-21 12:00:00 29.4 6 Sudeste 19 Este 0 -- -- 36
2019-07-21 11:00:00 27.2 11 Sudeste 16 Sudeste 0 -- -- 42
2019-07-21 10:00:00 25.9 6 Sudeste 12 Este 0 -- -- 49
2019-07-21 09:00:00 23.8 6 Sudeste 11 Sudeste 0 -- -- 53
2019-07-21 08:00:00 21.4 4 Este 15 Este 0 -- -- 60
2019-07-21 07:00:00 19.7 9 Este 16 Este 0 -- -- 60
2019-07-21 06:00:00 19.6 7 Este 11 Sudeste 0 -- -- 60
2019-07-21 05:00:00 20.8 9 Este 26 Este 0 -- -- 56
2019-07-21 04:00:00 21.3 17 Este 26 Este 0 -- -- 55
2019-07-21 03:00:00 21.1 13 Este 18 Este 0 -- -- 57
2019-07-21 02:00:00 20.9 10 Este 14 Este 0 -- -- 62
2019-07-21 01:00:00 22.1 11 Nordeste 15 Este 0 -- -- 57
2019-07-21 00:00:00 23.1 12 Este 29 Este 0 -- -- 53